NCAR-RAP Real-Time Weather Data

Output produced by METARs form (23 June 2018  19:27 UTC)
found at http://weather.rap.ucar.edu/surface/
 
RJOC 231100Z 18008KT 9999 FEW050 SCT070 BKN090 23/18 Q1003
RJOC 231000Z 16008KT 9999 FEW030 SCT060 BKN080 23/17 Q1003
RJOC 230900Z 21007KT 9999 -RA FEW025 SCT070 BKN090 23/17 Q1003
RJOC 230800Z 21009KT 9999 FEW025 SCT070 BKN110 23/17 Q1003
RJOC 230700Z 25009KT 9999 FEW025 SCT080 BKN110 24/17 Q1003
RJOC 230600Z 26013KT 9999 FEW030 BKN130 BKN/// 25/17 Q1003
RJOC 230500Z 25011KT 9999 FEW030 SCT130 BKN/// 25/18 Q1003
RJOC 230400Z 23007KT 9999 FEW020 SCT120 BKN130 24/18 Q1003
RJOC 230300Z 25009KT 9999 -RA FEW025 BKN120 BKN140 23/17 Q1004
RJOC 230200Z 22008KT CAVOK 24/17 Q1004
RJOC 230100Z 23006KT 210V280 9999 FEW040 SCT150 BKN180 25/17 Q1004
RJOC 230000Z 26004KT 210V310 9999 FEW050 SCT180 BKN/// 24/18 Q1004
RJOC 222300Z VRB02KT CAVOK 23/18 Q1004
RJOC 222200Z 13002KT CAVOK 22/18 Q1004
RJOC 222130Z VRB02KT CAVOK 22/17 Q1004
RJOC 222110Z 13005KT 070V160 CAVOK 21/17 Q1004 RMK A2967 FU LYR SW
RJOC 221100Z VRB02KT CAVOK 23/19 Q1008
RJOC 221000Z 06003KT 040V130 CAVOK 25/17 Q1008
RJOC 220900Z VRB01KT CAVOK 26/17 Q1008
RJOC 220800Z 04003KT 9999 FEW035 BKN/// 26/18 Q1007
RJOC 220700Z 03004KT 290V070 9999 FEW035 BKN/// 27/16 Q1007
RJOC 220600Z 27005KT 230V320 9999 FEW035 BKN/// 27/16 Q1008
RJOC 220500Z 28005KT 9999 FEW035 BKN/// 27/16 Q1008
RJOC 220400Z 27008KT 9999 FEW035 BKN/// 27/17 Q1008
RJOC 220300Z 28006KT 9999 FEW035 BKN/// 28/16 Q1009
RJOC 220200Z 02005KT 9999 FEW035 BKN/// 27/14 Q1009
RJOC 220100Z 02004KT CAVOK 24/16 Q1010
RJOC 220000Z VRB02KT CAVOK 22/16 Q1009
RJOC 212300Z 15007KT CAVOK 20/15 Q1010
RJOC 212200Z 16008KT CAVOK 18/14 Q1009
RJOC 212130Z 15008KT CAVOK 17/14 Q1009
RJOC 212110Z 18004KT 140V210 9999 FEW002 BKN/// 16/14 Q1009 RMK 1ST002 A2980
RJOC 211100Z 16005KT CAVOK 20/12 Q1007
RJOC 211000Z VRB02KT CAVOK 24/13 Q1007
RJOC 210900Z 35007KT 9999 FEW030 25/09 Q1007
RJOC 210800Z 35008KT 9999 FEW030 26/10 Q1006